createdAt,value
2023-07-08T00:00:20.075Z,36.33
2023-07-08T00:02:52.811Z,36.53
2023-07-08T00:05:28.141Z,36.61
2023-07-08T00:07:56.065Z,36.36
2023-07-08T00:10:26.053Z,36.54
2023-07-08T00:12:55.445Z,36.62
2023-07-08T00:15:26.745Z,35.44
2023-07-08T00:17:56.084Z,36.24
2023-07-08T00:20:30.173Z,36.00
2023-07-08T00:22:58.414Z,36.43
2023-07-08T00:25:26.345Z,36.99
2023-07-08T00:27:54.237Z,36.79
2023-07-08T00:30:25.122Z,36.39
2023-07-08T00:32:56.128Z,36.73
2023-07-08T00:35:32.597Z,36.62
2023-07-08T00:38:02.646Z,36.79
2023-07-08T00:40:32.612Z,37.13
2023-07-08T00:43:04.966Z,36.92
2023-07-08T00:45:53.424Z,37.36
2023-07-08T00:48:30.928Z,36.88
2023-07-08T00:51:00.703Z,37.26
2023-07-08T00:53:31.402Z,37.27
2023-07-08T00:56:03.182Z,37.54
2023-07-08T00:58:35.755Z,37.83
2023-07-08T01:01:07.794Z,37.78
2023-07-08T01:03:42.892Z,37.69
2023-07-08T01:06:12.513Z,37.63
2023-07-08T01:08:40.447Z,37.56
2023-07-08T01:11:08.653Z,37.54
2023-07-08T01:13:42.264Z,37.74
2023-07-08T01:16:10.852Z,37.82
2023-07-08T01:18:38.969Z,37.63
2023-07-08T01:21:29.222Z,37.56
2023-07-08T01:23:58.719Z,36.96
2023-07-08T01:26:28.586Z,37.63
2023-07-08T01:28:57.465Z,37.54
2023-07-08T01:31:25.808Z,36.98
2023-07-08T01:33:54.667Z,37.43
2023-07-08T01:36:23.492Z,37.25
2023-07-08T01:38:53.293Z,37.61
2023-07-08T01:41:22.634Z,37.38
2023-07-08T01:43:50.563Z,37.32
2023-07-08T01:46:24.363Z,37.50
2023-07-08T01:48:55.666Z,37.97
2023-07-08T01:51:24.429Z,37.47
2023-07-08T01:53:52.406Z,36.88
2023-07-08T01:56:20.564Z,36.91
2023-07-08T01:58:50.163Z,37.00
2023-07-08T02:01:18.499Z,36.94
2023-07-08T02:03:47.798Z,36.83
2023-07-08T02:06:16.569Z,37.20
2023-07-08T02:08:44.544Z,37.05
2023-07-08T02:11:12.925Z,36.85
2023-07-08T02:13:41.020Z,37.52
2023-07-08T02:16:10.588Z,37.45
2023-07-08T02:18:38.748Z,37.61
2023-07-08T02:21:06.972Z,37.52
2023-07-08T02:23:34.922Z,37.57
2023-07-08T02:26:03.072Z,37.79
2023-07-08T02:28:30.993Z,38.04
2023-07-08T02:31:04.384Z,38.13
2023-07-08T02:33:34.437Z,37.97
2023-07-08T02:36:02.799Z,38.37
2023-07-08T02:38:30.753Z,38.50
2023-07-08T02:40:59.849Z,38.72
2023-07-08T02:43:28.144Z,38.58
2023-07-08T02:45:56.176Z,38.79
2023-07-08T02:48:24.242Z,38.71
2023-07-08T02:50:53.724Z,38.89
2023-07-08T02:53:21.645Z,38.92
2023-07-08T02:55:49.776Z,39.05
2023-07-08T02:58:20.677Z,39.68
2023-07-08T03:00:54.016Z,39.90
2023-07-08T03:03:22.425Z,39.92
2023-07-08T03:05:58.277Z,40.04
2023-07-08T03:08:26.769Z,39.90
2023-07-08T03:10:58.770Z,40.32
2023-07-08T03:13:28.084Z,40.53
2023-07-08T03:15:56.948Z,40.71
2023-07-08T03:18:27.673Z,40.88
2023-07-08T03:20:58.152Z,40.84
2023-07-08T03:23:27.483Z,41.31
2023-07-08T03:25:55.823Z,41.30
2023-07-08T03:28:23.759Z,41.25
2023-07-08T03:30:55.067Z,41.62
2023-07-08T03:33:23.301Z,41.50
2023-07-08T03:35:51.704Z,41.58
2023-07-08T03:38:21.190Z,41.50
2023-07-08T03:40:49.169Z,41.90
2023-07-08T03:43:17.073Z,41.77
2023-07-08T03:45:46.498Z,42.05
2023-07-08T03:48:14.723Z,42.10
2023-07-08T03:50:42.670Z,42.53
2023-07-08T03:53:11.533Z,42.76
2023-07-08T03:55:40.931Z,43.38
2023-07-08T03:58:09.655Z,43.32
2023-07-08T04:00:37.553Z,43.80
2023-07-08T04:03:05.638Z,43.71
2023-07-08T04:05:33.883Z,43.78
2023-07-08T04:08:01.822Z,44.01
2023-07-08T04:10:29.835Z,44.47
2023-07-08T04:12:59.191Z,44.02
2023-07-08T04:15:29.557Z,43.98
2023-07-08T04:17:58.582Z,43.95
2023-07-08T04:20:27.108Z,43.94
2023-07-08T04:22:55.443Z,44.13
2023-07-08T04:25:28.125Z,44.19
2023-07-08T04:27:58.542Z,43.74
2023-07-08T04:30:28.151Z,43.87
2023-07-08T04:32:57.357Z,43.96
2023-07-08T04:35:25.824Z,44.09
2023-07-08T04:37:55.654Z,44.43
2023-07-08T04:40:23.825Z,44.34
2023-07-08T04:42:53.417Z,44.17
2023-07-08T04:45:22.785Z,43.67
2023-07-08T04:47:53.807Z,43.42
2023-07-08T04:50:22.619Z,43.23
2023-07-08T04:52:50.872Z,43.34
2023-07-08T04:55:19.250Z,43.56
2023-07-08T04:57:47.208Z,43.96
2023-07-08T05:00:18.630Z,44.11
2023-07-08T05:02:48.228Z,44.53
2023-07-08T05:05:16.311Z,44.19
2023-07-08T05:07:44.652Z,44.45
2023-07-08T05:10:12.757Z,44.48
2023-07-08T05:12:40.659Z,43.78
2023-07-08T05:15:09.604Z,44.05
2023-07-08T05:17:39.720Z,43.76
2023-07-08T05:20:12.502Z,43.85
2023-07-08T05:22:40.985Z,43.92
2023-07-08T05:25:09.541Z,43.65
2023-07-08T05:27:37.563Z,42.34
2023-07-08T05:30:07.572Z,42.11
2023-07-08T05:32:35.754Z,42.01
2023-07-08T05:35:04.033Z,41.78
2023-07-08T05:37:33.679Z,41.85
2023-07-08T05:40:04.024Z,41.59
2023-07-08T05:42:32.371Z,41.48
2023-07-08T05:45:00.595Z,41.14
2023-07-08T05:47:28.764Z,41.14
2023-07-08T05:49:56.703Z,41.08
2023-07-08T05:52:24.644Z,41.24
2023-07-08T05:54:54.323Z,41.03
2023-07-08T05:57:22.285Z,40.58
2023-07-08T05:59:51.922Z,40.43
2023-07-08T06:02:20.765Z,40.81
2023-07-08T06:04:48.734Z,40.46
2023-07-08T06:07:17.875Z,39.82
2023-07-08T06:09:46.043Z,39.91
2023-07-08T06:12:15.749Z,39.15
2023-07-08T06:14:43.870Z,39.37
2023-07-08T06:17:12.015Z,38.92
2023-07-08T06:19:40.072Z,38.23
2023-07-08T06:22:33.374Z,38.61
2023-07-08T06:24:56.039Z,39.04
2023-07-08T06:27:26.214Z,38.79
2023-07-08T06:29:55.689Z,39.88
2023-07-08T06:32:23.765Z,40.47
2023-07-08T06:34:51.797Z,40.03
2023-07-08T06:37:19.752Z,40.61
2023-07-08T06:39:47.795Z,39.99
2023-07-08T06:42:15.956Z,39.90
2023-07-08T06:44:53.369Z,39.84
2023-07-08T06:47:23.378Z,39.76
2023-07-08T06:49:51.466Z,39.45
2023-07-08T06:52:19.369Z,39.83
2023-07-08T06:54:47.242Z,39.90
2023-07-08T06:57:15.180Z,39.14
2023-07-08T06:59:43.134Z,39.68
2023-07-08T07:02:12.791Z,39.62
2023-07-08T07:04:41.029Z,39.75
2023-07-08T07:07:09.293Z,38.53
2023-07-08T07:09:37.665Z,38.52
2023-07-08T07:12:07.639Z,38.07
2023-07-08T07:17:09.244Z,36.56
2023-07-08T07:19:38.869Z,36.25
2023-07-08T07:22:07.897Z,36.30
2023-07-08T07:24:36.303Z,36.30
2023-07-08T07:27:04.528Z,36.37
2023-07-08T07:29:42.621Z,36.37
2023-07-08T07:32:11.163Z,36.94
2023-07-08T07:34:40.878Z,36.43
2023-07-08T07:37:12.792Z,36.64
2023-07-08T07:39:41.121Z,36.78
2023-07-08T07:42:09.952Z,37.11
2023-07-08T07:44:40.545Z,37.25
2023-07-08T07:47:09.693Z,37.32
2023-07-08T07:49:37.729Z,36.94
2023-07-08T07:52:07.998Z,36.85
2023-07-08T07:54:36.298Z,36.87
2023-07-08T07:57:04.197Z,36.83
2023-07-08T07:59:32.510Z,37.16
2023-07-08T08:02:00.609Z,37.27
2023-07-08T08:04:28.727Z,37.24
2023-07-08T08:06:56.699Z,36.52
2023-07-08T08:09:26.172Z,36.73
2023-07-08T08:11:55.826Z,36.66
2023-07-08T08:14:24.394Z,36.21
2023-07-08T08:16:53.066Z,35.89
2023-07-08T08:19:21.413Z,35.39
2023-07-08T08:21:49.422Z,35.15
2023-07-08T08:24:17.733Z,35.10
2023-07-08T08:26:47.220Z,34.34
2023-07-08T08:29:15.380Z,34.11
2023-07-08T08:31:43.637Z,33.96
2023-07-08T08:34:11.875Z,33.85
2023-07-08T08:36:39.959Z,32.84
2023-07-08T08:39:08.110Z,32.47
2023-07-08T08:41:38.022Z,33.09
2023-07-08T08:44:10.466Z,33.14
2023-07-08T08:46:45.437Z,32.42
2023-07-08T08:49:24.249Z,32.00
2023-07-08T08:51:53.662Z,31.22
2023-07-08T08:54:27.239Z,31.20
2023-07-08T08:57:06.635Z,30.99
2023-07-08T08:59:46.367Z,30.82
2023-07-08T09:02:28.007Z,30.61
2023-07-08T09:04:59.415Z,30.42
2023-07-08T09:07:30.752Z,30.80
2023-07-08T09:10:04.944Z,30.33
2023-07-08T09:12:35.758Z,30.00
2023-07-08T09:15:14.289Z,30.06
2023-07-08T09:17:42.477Z,28.47
2023-07-08T09:20:22.564Z,28.73
2023-07-08T09:22:59.632Z,29.52
2023-07-08T09:25:34.820Z,28.14
2023-07-08T09:28:03.249Z,27.96
2023-07-08T09:30:33.011Z,28.63
2023-07-08T09:33:05.828Z,28.64
2023-07-08T09:35:41.335Z,29.00
2023-07-08T09:38:10.654Z,29.49
2023-07-08T09:40:38.657Z,28.75
2023-07-08T09:43:26.216Z,29.00
2023-07-08T09:46:00.601Z,28.40
2023-07-08T09:48:30.501Z,28.59
2023-07-08T09:51:00.305Z,28.03
2023-07-08T09:53:29.093Z,27.60
2023-07-08T09:56:00.821Z,27.82
2023-07-08T09:58:32.889Z,28.15
2023-07-08T10:01:08.411Z,28.84
2023-07-08T10:03:40.243Z,28.43
2023-07-08T10:06:19.603Z,28.53
2023-07-08T10:08:48.591Z,27.98
2023-07-08T10:11:32.054Z,28.65
2023-07-08T10:14:14.016Z,27.51
2023-07-08T10:16:45.973Z,27.97
2023-07-08T10:19:18.873Z,27.55
2023-07-08T10:21:58.590Z,27.10
2023-07-08T10:24:39.422Z,27.39
2023-07-08T10:27:17.802Z,26.77
2023-07-08T10:29:55.113Z,27.25
2023-07-08T10:32:40.809Z,27.20
2023-07-08T10:35:20.452Z,26.66
2023-07-08T10:38:04.615Z,27.23
2023-07-08T10:40:49.601Z,27.59
2023-07-08T10:43:36.806Z,27.12
2023-07-08T10:46:15.919Z,27.50
2023-07-08T10:49:00.144Z,28.06
2023-07-08T10:51:37.274Z,27.45
2023-07-08T10:54:24.754Z,28.18
2023-07-08T10:56:57.277Z,29.03
2023-07-08T10:59:37.885Z,29.36
2023-07-08T11:02:26.766Z,29.94
2023-07-08T11:05:08.185Z,30.21
2023-07-08T11:07:44.331Z,30.84
2023-07-08T11:10:18.899Z,30.01
2023-07-08T11:12:49.687Z,30.00
2023-07-08T11:15:24.889Z,28.33
2023-07-08T11:17:58.699Z,28.52
2023-07-08T11:20:40.108Z,27.89
2023-07-08T11:23:19.110Z,28.25
2023-07-08T11:25:50.586Z,27.96
2023-07-08T11:28:24.055Z,27.55
2023-07-08T11:30:54.071Z,27.86
2023-07-08T11:33:26.948Z,26.98
2023-07-08T11:35:59.492Z,26.73
2023-07-08T11:38:27.736Z,26.40
2023-07-08T11:40:59.486Z,26.79
2023-07-08T11:43:30.886Z,26.93
2023-07-08T11:45:59.861Z,26.66
2023-07-08T11:48:32.824Z,25.97
2023-07-08T11:51:06.853Z,26.27
2023-07-08T11:53:39.162Z,26.08
2023-07-08T11:56:22.188Z,25.78
2023-07-08T11:59:01.027Z,25.45
2023-07-08T12:01:32.810Z,24.73
2023-07-08T12:04:03.364Z,25.12
2023-07-08T12:06:53.750Z,25.18
2023-07-08T12:09:28.117Z,24.75
2023-07-08T12:12:02.764Z,25.29
2023-07-08T12:14:31.927Z,24.71
2023-07-08T12:17:00.491Z,24.46
2023-07-08T12:19:35.857Z,24.80
2023-07-08T12:22:06.896Z,23.29
2023-07-08T12:24:36.233Z,23.93
2023-07-08T12:27:05.418Z,24.11
2023-07-08T12:29:34.373Z,24.40
2023-07-08T12:32:02.363Z,24.11
2023-07-08T12:34:30.766Z,23.68
2023-07-08T12:37:00.034Z,24.16
2023-07-08T12:39:36.973Z,24.23
2023-07-08T12:42:10.886Z,23.22
2023-07-08T12:44:43.507Z,23.95
2023-07-08T12:47:12.062Z,24.10
2023-07-08T12:49:40.045Z,23.55
2023-07-08T12:52:08.495Z,23.96
2023-07-08T12:54:37.763Z,23.13
2023-07-08T12:57:06.590Z,23.00
2023-07-08T12:59:35.674Z,23.83
2023-07-08T13:02:03.911Z,23.05
2023-07-08T13:04:32.255Z,22.54
2023-07-08T13:07:02.975Z,23.04
2023-07-08T13:09:39.779Z,23.06
2023-07-08T13:12:17.192Z,23.74
2023-07-08T13:14:46.687Z,22.99
2023-07-08T13:17:16.914Z,23.36
2023-07-08T13:19:46.434Z,22.46
2023-07-08T13:22:18.752Z,23.02
2023-07-08T13:24:48.783Z,22.43
2023-07-08T13:27:23.481Z,22.37
2023-07-08T13:29:53.612Z,23.06
2023-07-08T13:32:22.009Z,22.70
2023-07-08T13:34:52.039Z,22.71
2023-07-08T13:37:24.076Z,22.74
2023-07-08T13:39:56.791Z,22.74
2023-07-08T13:42:24.993Z,22.59
2023-07-08T13:44:53.143Z,23.23
2023-07-08T13:47:30.103Z,22.94
2023-07-08T13:50:13.862Z,22.49
2023-07-08T13:52:45.978Z,21.60
2023-07-08T13:55:22.865Z,21.78
2023-07-08T13:57:59.431Z,22.79
2023-07-08T14:00:28.027Z,21.99
2023-07-08T14:02:57.011Z,22.40
2023-07-08T14:05:25.285Z,22.93
2023-07-08T14:07:53.198Z,22.20
2023-07-08T14:10:23.125Z,21.79
2023-07-08T14:12:51.111Z,21.79
2023-07-08T14:15:19.021Z,21.67
2023-07-08T14:17:47.028Z,22.24
2023-07-08T14:20:18.616Z,22.62
2023-07-08T14:22:46.650Z,22.20
2023-07-08T14:25:17.989Z,22.22
2023-07-08T14:27:47.721Z,22.10
2023-07-08T14:30:16.650Z,22.12
2023-07-08T14:32:45.109Z,22.83
2023-07-08T14:35:19.011Z,22.94
2023-07-08T14:37:47.490Z,22.76
2023-07-08T14:40:25.772Z,22.65
2023-07-08T14:43:01.180Z,22.03
2023-07-08T14:45:31.319Z,22.80
2023-07-08T14:47:59.560Z,22.48
2023-07-08T14:50:30.856Z,22.84
2023-07-08T14:52:59.016Z,22.87
2023-07-08T14:55:27.496Z,22.69
2023-07-08T14:57:57.570Z,22.68
2023-07-08T15:00:26.184Z,23.41
2023-07-08T15:02:55.342Z,23.76
2023-07-08T15:05:25.652Z,24.02
2023-07-08T15:07:54.718Z,24.80
2023-07-08T15:10:26.607Z,24.88
2023-07-08T15:12:57.321Z,24.65
2023-07-08T15:15:29.934Z,24.81
2023-07-08T15:17:58.817Z,24.90
2023-07-08T15:20:27.561Z,25.19
2023-07-08T15:22:56.075Z,25.47
2023-07-08T15:25:24.124Z,25.91
2023-07-08T15:27:55.598Z,25.33
2023-07-08T15:30:26.553Z,26.35
2023-07-08T15:32:55.218Z,26.18
2023-07-08T15:35:25.679Z,25.39
2023-07-08T15:37:54.356Z,25.51
2023-07-08T15:40:24.865Z,25.76
2023-07-08T15:42:57.198Z,25.21
2023-07-08T15:45:29.897Z,25.79
2023-07-08T15:47:57.947Z,25.72
2023-07-08T15:50:29.005Z,26.02
2023-07-08T15:52:57.373Z,25.62
2023-07-08T15:55:30.653Z,25.87
2023-07-08T15:58:03.222Z,25.82
2023-07-08T16:00:35.321Z,25.69
2023-07-08T16:03:05.828Z,25.71
2023-07-08T16:05:36.235Z,26.08
2023-07-08T16:08:05.224Z,26.00
2023-07-08T16:10:34.769Z,26.10
2023-07-08T16:13:05.182Z,26.54
2023-07-08T16:15:39.251Z,26.69
2023-07-08T16:18:12.315Z,26.39
2023-07-08T16:20:40.331Z,26.26
2023-07-08T16:23:08.208Z,26.03
2023-07-08T16:25:39.842Z,26.06
2023-07-08T16:28:08.547Z,26.09
2023-07-08T16:30:37.881Z,26.08
2023-07-08T16:33:05.847Z,25.81
2023-07-08T16:35:33.819Z,25.81
2023-07-08T16:38:01.742Z,26.00
2023-07-08T16:40:30.190Z,25.73
2023-07-08T16:42:59.480Z,25.81
2023-07-08T16:45:28.039Z,25.83
2023-07-08T16:47:57.687Z,25.87
2023-07-08T16:50:29.381Z,25.90
2023-07-08T16:52:57.782Z,26.21
2023-07-08T16:55:25.875Z,26.49
2023-07-08T16:57:53.860Z,26.82
2023-07-08T17:00:22.810Z,26.41
2023-07-08T17:02:51.404Z,26.76
2023-07-08T17:05:24.719Z,26.90
2023-07-08T17:07:53.217Z,26.25
2023-07-08T17:10:21.657Z,26.67
2023-07-08T17:12:50.011Z,27.01
2023-07-08T17:15:19.288Z,26.84
2023-07-08T17:17:51.448Z,27.34
2023-07-08T17:20:23.486Z,27.57
2023-07-08T17:22:51.738Z,27.18
2023-07-08T17:25:21.475Z,26.99
2023-07-08T17:27:52.152Z,27.71
2023-07-08T17:30:23.105Z,28.29
2023-07-08T17:32:56.112Z,28.25
2023-07-08T17:35:28.383Z,28.23
2023-07-08T17:37:58.166Z,28.02
2023-07-08T17:40:30.030Z,28.65
2023-07-08T17:42:58.912Z,28.34
2023-07-08T17:45:33.892Z,28.78
2023-07-08T17:48:06.468Z,28.93
2023-07-08T17:50:42.081Z,29.15
2023-07-08T17:53:12.383Z,28.82
2023-07-08T17:55:40.890Z,29.31
2023-07-08T17:58:14.630Z,29.32
2023-07-08T18:00:46.734Z,29.33
2023-07-08T18:03:15.330Z,29.38
2023-07-08T18:05:44.708Z,29.66
2023-07-08T18:08:12.607Z,29.80
2023-07-08T18:10:40.793Z,30.11
2023-07-08T18:13:19.650Z,30.06
2023-07-08T18:15:48.087Z,30.55
2023-07-08T18:18:16.542Z,30.54
2023-07-08T18:20:52.882Z,30.55
2023-07-08T18:23:23.730Z,31.20
2023-07-08T18:25:52.493Z,30.88
2023-07-08T18:28:20.492Z,31.38
2023-07-08T18:30:55.765Z,31.71
2023-07-08T18:33:23.819Z,31.59
2023-07-08T18:35:53.180Z,31.46
2023-07-08T18:38:21.116Z,31.78
2023-07-08T18:40:49.460Z,32.49
2023-07-08T18:43:20.296Z,32.40
2023-07-08T18:45:49.850Z,32.46
2023-07-08T18:48:19.923Z,32.39
2023-07-08T18:50:51.999Z,32.80
2023-07-08T18:53:22.144Z,33.53
2023-07-08T18:55:50.602Z,33.81
2023-07-08T18:58:21.146Z,34.22
2023-07-08T19:00:50.984Z,34.09
2023-07-08T19:03:25.172Z,34.04
2023-07-08T19:05:53.601Z,34.32
2023-07-08T19:08:24.504Z,35.11
2023-07-08T19:10:56.178Z,35.41
2023-07-08T19:13:26.345Z,34.53
2023-07-08T19:15:55.655Z,35.37
2023-07-08T19:18:23.872Z,35.85
2023-07-08T19:20:52.646Z,35.67
2023-07-08T19:23:25.385Z,36.05
2023-07-08T19:25:53.503Z,36.07
2023-07-08T19:28:21.485Z,36.03
2023-07-08T19:30:54.705Z,36.75
2023-07-08T19:33:23.617Z,36.80
2023-07-08T19:35:52.536Z,36.64
2023-07-08T19:38:23.245Z,36.98
2023-07-08T19:40:54.679Z,37.12
2023-07-08T19:43:23.786Z,37.86
2023-07-08T19:45:51.843Z,37.79
2023-07-08T19:48:19.858Z,38.18
2023-07-08T19:50:49.001Z,38.19
2023-07-08T19:53:17.285Z,38.44
2023-07-08T19:55:45.437Z,38.50
2023-07-08T19:58:15.075Z,38.62
2023-07-08T20:00:46.011Z,38.89
2023-07-08T20:03:15.796Z,39.59
2023-07-08T20:05:45.163Z,39.31
2023-07-08T20:08:29.537Z,39.71
2023-07-08T20:10:57.527Z,39.97
2023-07-08T20:13:28.624Z,39.36
2023-07-08T20:15:58.802Z,39.91
2023-07-08T20:18:31.574Z,39.60
2023-07-08T20:21:00.421Z,39.78
2023-07-08T20:23:29.849Z,39.51
2023-07-08T20:25:59.435Z,39.80
2023-07-08T20:31:02.972Z,39.61
2023-07-08T20:33:31.013Z,40.14
2023-07-08T20:35:59.128Z,40.14
2023-07-08T20:38:28.237Z,40.34
2023-07-08T20:40:56.212Z,40.17
2023-07-08T20:43:24.610Z,40.18
2023-07-08T20:45:56.840Z,40.31
2023-07-08T20:48:29.990Z,40.23
2023-07-08T20:50:58.427Z,40.52
2023-07-08T20:53:26.805Z,39.98
2023-07-08T20:55:56.356Z,39.89
2023-07-08T20:58:26.493Z,40.28
2023-07-08T21:00:55.967Z,40.20
2023-07-08T21:03:25.002Z,40.40
2023-07-08T21:05:55.398Z,40.50
2023-07-08T21:08:28.367Z,40.60
2023-07-08T21:10:58.511Z,40.89
2023-07-08T21:13:26.952Z,40.90
2023-07-08T21:15:56.981Z,41.05
2023-07-08T21:18:35.825Z,40.91
2023-07-08T21:21:03.800Z,41.08
2023-07-08T21:23:32.613Z,40.96
2023-07-08T21:26:00.836Z,41.26
2023-07-08T21:28:32.684Z,41.29
2023-07-08T21:31:02.694Z,41.48
2023-07-08T21:33:31.354Z,41.25
2023-07-08T21:36:01.506Z,41.91
2023-07-08T21:38:30.146Z,42.43
2023-07-08T21:40:58.040Z,42.86
2023-07-08T21:43:28.592Z,43.14
2023-07-08T21:46:00.001Z,42.98
2023-07-08T21:48:29.709Z,43.36
2023-07-08T21:50:59.947Z,43.36
2023-07-08T21:53:32.080Z,43.27
2023-07-08T21:56:01.086Z,43.61
2023-07-08T21:58:29.944Z,43.57
2023-07-08T22:00:58.173Z,43.93
2023-07-08T22:03:28.698Z,43.16
2023-07-08T22:05:59.805Z,43.72
2023-07-08T22:08:30.495Z,43.43
2023-07-08T22:11:01.331Z,43.80
2023-07-08T22:13:31.253Z,43.99
2023-07-08T22:16:01.569Z,44.20
2023-07-08T22:18:31.121Z,44.81
2023-07-08T22:21:02.666Z,44.66
2023-07-08T22:23:32.863Z,44.74
2023-07-08T22:26:02.021Z,44.68
2023-07-08T22:28:30.285Z,44.68
2023-07-08T22:30:58.324Z,45.26
2023-07-08T22:33:26.519Z,45.15
2023-07-08T22:35:54.766Z,44.89
2023-07-08T22:38:24.063Z,45.41
2023-07-08T22:40:52.057Z,45.11
2023-07-08T22:43:24.895Z,45.12
2023-07-08T22:45:52.819Z,45.49
2023-07-08T22:48:21.038Z,45.55
2023-07-08T22:50:51.063Z,45.95
2023-07-08T22:53:21.517Z,45.91
2023-07-08T22:55:51.110Z,46.64
2023-07-08T22:58:21.751Z,46.42
2023-07-08T23:00:50.507Z,45.85
2023-07-08T23:03:18.673Z,45.42
2023-07-08T23:05:49.614Z,46.29
2023-07-08T23:08:20.009Z,46.38
2023-07-08T23:10:49.159Z,46.75
2023-07-08T23:13:20.698Z,46.62
2023-07-08T23:15:48.893Z,46.71
2023-07-08T23:18:19.001Z,46.60
2023-07-08T23:20:47.650Z,47.31
2023-07-08T23:23:16.351Z,47.45
2023-07-08T23:25:45.897Z,47.02
2023-07-08T23:28:15.534Z,47.09
2023-07-08T23:30:44.825Z,47.09
2023-07-08T23:33:16.572Z,47.42
2023-07-08T23:35:45.641Z,47.38
2023-07-08T23:38:19.330Z,47.16
2023-07-08T23:40:48.133Z,47.64
2023-07-08T23:43:18.684Z,47.48
2023-07-08T23:45:49.795Z,47.42
2023-07-08T23:48:19.291Z,47.92
2023-07-08T23:50:48.927Z,47.88
2023-07-08T23:53:18.124Z,48.79
2023-07-08T23:55:48.633Z,49.18
2023-07-08T23:58:27.541Z,49.56
